Latest Weather Observations for Yeppoon

IDQ60801

Issued at 11:02 pm EST Tuesday 28 January 2020 (issued every 10 minutes, with the page automatically refreshed every 10 minutes)

About weather observations | Map of weather stations | Latest weather observations for QLD | Other Formats
Station Details ID: 033294 Name: YEPPOON THE ESPLANADE Lat: -23.14 Lon: 150.75 Height: 5.5 m
Data from the previous 72 hours. | See also: Recent months at Yeppoon
Date/Time
EST
Temp
°C
App
Temp
°C
Dew
Point
°C
Rel
Hum
%
Delta-T
°C
Wind Press
QNH
hPa
Press
MSL
hPa
Rain since
9am
mm
Dir  Spd
km/h
Gust
km/h
Spd
kts
Gust
kts
28/11:00pm 27.3 29.7 24.6 85 1.9 E 20 26 11 14 1012.9 1012.9 0.8
28/10:30pm 27.3 30.0 24.2 83 2.1 ESE 17 22 9 12 1013.1 1013.1 0.8
28/10:00pm 27.3 30.0 24.2 83 2.1 ESE 17 22 9 12 1013.1 1013.1 0.8
28/09:30pm 27.4 30.3 24.5 84 2.0 ESE 17 22 9 12 1012.8 1012.8 0.8
28/09:00pm 27.4 29.8 24.3 83 2.1 ESE 19 22 10 12 1012.5 1012.5 0.8
28/08:30pm 27.3 30.0 24.2 83 2.1 E 17 22 9 12 1012.3 1012.3 0.8
28/08:00pm 27.2 29.6 23.7 81 2.4 ENE 17 20 9 11 1012.1 1012.1 0.8
28/07:30pm 27.5 30.2 24.1 82 2.3 E 17 20 9 11 1012.0 1012.0 0.8
28/07:00pm 27.3 30.8 24.2 83 2.1 ENE 13 17 7 9 1011.9 1011.9 0.8
28/06:30pm 27.4 30.8 24.1 82 2.3 NE 13 17 7 9 1011.4 1011.4 0.8
28/06:00pm 27.0 29.6 23.9 83 2.1 NE 17 20 9 11 1011.1 1011.1 0.8
28/05:30pm 27.0 29.2 23.9 83 2.1 NE 19 24 10 13 1010.7 1010.7 0.8
28/05:00pm 27.3 29.7 24.2 83 2.1 NE 19 22 10 12 1010.4 1010.4 0.8
28/04:30pm 26.9 28.4 24.4 86 1.7 NE 24 30 13 16 1010.2 1010.2 0.8
28/04:00pm 27.0 27.1 24.5 86 1.7 ENE 32 37 17 20 1010.2 1010.2 0.8
28/03:30pm 27.2 27.8 24.7 86 1.7 ENE 30 35 16 19 1010.4 1010.4 0.8
28/03:00pm 27.4 28.4 24.8 86 1.8 ENE 28 35 15 19 1010.5 1010.5 0.8
28/02:30pm 26.9 27.5 24.2 85 1.9 ENE 28 33 15 18 1010.6 1010.6 0.8
28/02:00pm 28.0 29.9 25.0 84 2.1 E 24 28 13 15 1010.7 1010.7 0.6
28/01:30pm 27.6 28.0 23.8 80 2.6 E 28 32 15 17 1011.2 1011.2 0.6
28/01:00pm 27.6 27.9 24.2 82 2.4 E 30 33 16 18 1011.5 1011.5 0.6
28/12:30pm 27.6 27.7 24.0 81 2.5 E 30 35 16 19 1011.7 1011.7 0.6
28/12:00pm 26.9 27.3 24.5 87 1.7 E 30 33 16 18 1011.8 1011.8 0.6
28/11:30am 26.8 25.5 23.1 80 2.5 ENE 35 41 19 22 1011.7 1011.7 0.6
28/11:00am 27.2 28.5 24.7 86 1.7 E 26 32 14 17 1011.9 1011.9 0.6
28/10:30am 27.8 28.4 24.8 84 2.1 E 30 35 16 19 1011.8 1011.8 0.0
28/10:00am 27.4 28.0 24.1 82 2.3 E 28 33 15 18 1011.9 1011.9 0.0
28/09:30am 27.5 28.5 24.1 82 2.3 ESE 26 35 14 19 1011.8 1011.8 0.0
28/09:00am 27.7 30.5 25.3 87 1.7 ESE 20 33 11 18 1011.8 1011.8 0.2
28/08:30am 28.1 28.4 24.3 80 2.6 ESE 30 37 16 20 1011.3 1011.3 0.2
28/08:00am 28.0 29.0 24.2 80 2.6 ESE 26 35 14 19 1011.0 1011.0 0.2
28/07:30am 27.7 29.7 23.9 80 2.6 ESE 20 32 11 17 1010.9 1010.9 0.2
28/07:00am 27.5 29.1 23.9 81 2.5 ESE 22 32 12 17 1010.8 1010.8 0.2
28/06:30am 27.2 27.9 23.7 81 2.4 ESE 26 37 14 20 1010.5 1010.5 0.2
28/06:00am 27.0 28.6 23.9 83 2.1 ESE 22 33 12 18 1010.0 1010.0 0.2
28/05:30am 27.2 28.5 24.1 83 2.1 ESE 24 35 13 19 1009.7 1009.7 0.2
28/05:00am 27.4 29.5 23.8 81 2.5 ESE 19 30 10 16 1009.5 1009.5 0.2
28/04:30am 27.3 29.1 23.3 79 2.7 ESE 19 30 10 16 1009.5 1009.5 0.2
28/04:00am 27.2 28.7 23.0 78 2.9 ESE 20 32 11 17 1009.7 1009.7 0.2
28/03:30am 27.3 29.0 23.1 78 2.9 ESE 19 28 10 15 1009.8 1009.8 0.2
28/03:00am 27.1 28.6 23.1 79 2.7 ESE 20 28 11 15 1009.8 1009.8 0.2
28/02:30am 27.3 29.1 23.3 79 2.7 ESE 19 26 10 14 1010.0 1010.0 0.2
28/02:00am 27.3 28.9 22.9 77 3.0 ESE 19 28 10 15 1010.4 1010.4 0.2
28/01:30am 27.3 28.9 23.3 79 2.7 ESE 20 28 11 15 1010.8 1010.8 0.2
28/01:00am 27.5 28.2 22.9 76 3.1 ESE 24 32 13 17 1011.0 1011.0 0.2
28/12:30am 27.7 29.1 23.5 78 2.9 E 22 28 12 15 1011.3 1011.3 0.2
28/12:00am 27.6 28.7 23.0 76 3.1 ESE 22 30 12 16 1011.7 1011.7 0.2
 
Date/Time
EST
Temp
°C
App
Temp
°C
Dew
Point
°C
Rel
Hum
%
Delta-T
°C
Wind Press
QNH
hPa
Press
MSL
hPa
Rain since
9am
mm
Dir  Spd
km/h
Gust
km/h
Spd
kts
Gust
kts
27/11:30pm 27.5 27.1 22.4 73 3.4 E 28 32 15 17 1011.8 1011.8 0.2
27/11:00pm 27.6 27.6 21.6 70 4.0 E 24 30 13 16 1011.9 1011.9 0.2
27/10:30pm 27.7 27.9 22.0 71 3.8 ESE 24 30 13 16 1012.2 1012.2 0.2
27/10:00pm 27.7 27.5 22.0 71 3.8 E 26 30 14 16 1012.3 1012.3 0.2
27/09:30pm 27.8 27.9 22.5 73 3.6 E 26 32 14 17 1012.3 1012.3 0.2
27/09:00pm 27.8 27.6 22.1 71 3.8 E 26 33 14 18 1012.0 1012.0 0.2
27/08:30pm 27.7 27.3 21.7 70 4.0 E 26 30 14 16 1011.7 1011.7 0.2
27/08:00pm 27.8 27.4 22.3 72 3.7 E 28 37 15 20 1011.4 1011.4 0.2
27/07:30pm 27.9 28.0 22.6 73 3.6 E 26 33 14 18 1011.2 1011.2 0.2
27/07:00pm 27.9 28.3 22.4 72 3.7 E 24 32 13 17 1010.9 1010.9 0.2
27/06:30pm 27.9 27.5 21.7 69 4.2 E 26 32 14 17 1010.6 1010.6 0.2
27/06:00pm 28.0 28.3 22.2 70 3.9 E 24 32 13 17 1010.2 1010.2 0.2
27/05:30pm 28.2 28.4 22.0 69 4.2 ESE 24 30 13 16 1010.1 1010.1 0.2
27/05:00pm 28.2 28.5 22.2 70 4.1 E 24 32 13 17 1009.7 1009.7 0.2
27/04:30pm 28.4 28.0 22.4 70 4.1 E 28 35 15 19 1009.7 1009.7 0.2
27/04:00pm 28.6 28.2 22.3 68 4.3 E 28 32 15 17 1009.7 1009.7 0.2
27/03:30pm 28.8 28.5 22.5 68 4.3 E 28 33 15 18 1009.7 1009.7 0.2
27/03:00pm 28.8 28.3 22.8 70 4.1 E 30 35 16 19 1009.8 1009.8 0.2
27/02:30pm 29.1 29.1 23.1 70 4.1 E 28 33 15 18 1010.1 1010.1 0.2
27/02:00pm 28.6 28.0 22.6 70 4.1 E 30 33 16 18 1010.3 1010.3 0.2
27/01:30pm 29.2 28.7 22.9 69 4.3 ENE 30 35 16 19 1010.6 1010.6 0.2
27/01:00pm 29.4 29.7 23.6 71 4.0 ENE 28 32 15 17 1010.9 1010.9 0.2
27/12:30pm 29.2 28.8 22.4 66 4.6 ENE 28 32 15 17 1011.2 1011.2 0.2
27/12:00pm 29.4 29.3 23.6 71 4.0 ENE 30 35 16 19 1011.3 1011.3 0.2
27/11:30am 28.9 29.0 23.3 72 3.8 E 28 32 15 17 1011.4 1011.4 0.2
27/11:00am 29.3 29.5 23.5 71 4.0 ENE 28 32 15 17 1011.7 1011.7 0.2
27/10:30am 28.8 28.3 22.8 70 4.1 ENE 30 33 16 18 1011.7 1011.7 0.2
27/10:00am 28.6 28.3 22.6 70 4.1 ENE 28 32 15 17 1011.9 1011.9 0.2
27/09:30am 28.6 29.0 23.1 72 3.8 ENE 26 32 14 17 1011.8 1011.8 0.0
27/09:00am 28.7 29.1 23.1 71 3.8 ENE 26 30 14 16 1011.6 1011.6 0.2
27/08:30am 28.7 29.1 23.1 71 3.8 ENE 26 32 14 17 1011.6 1011.6 0.2
27/08:00am 28.4 28.0 22.4 70 4.1 E 28 35 15 19 1011.6 1011.6 0.2
27/07:30am 28.0 27.1 22.2 70 3.9 E 30 35 16 19 1011.4 1011.4 0.2
27/07:00am 27.7 27.7 23.1 76 3.1 E 28 35 15 19 1011.2 1011.2 0.2
27/06:30am 27.7 28.2 23.9 80 2.6 E 28 33 15 18 1010.7 1010.7 0.2
27/06:00am 27.1 27.1 23.1 79 2.7 E 28 33 15 18 1010.4 1010.4 0.2
27/05:30am 27.3 27.9 23.5 80 2.6 E 26 32 14 17 1010.1 1010.1 0.2
27/05:00am 27.1 26.7 22.3 75 3.2 ENE 28 32 15 17 1009.8 1009.8 0.2
27/04:30am 27.3 27.3 23.1 78 2.9 ENE 28 35 15 19 1009.7 1009.7 0.2
27/04:00am 27.1 27.0 22.9 78 2.9 ENE 28 33 15 18 1009.5 1009.5 0.2
27/03:30am 27.3 27.4 23.3 79 2.7 ENE 28 35 15 19 1009.6 1009.6 0.2
27/03:00am 27.2 27.4 22.8 77 3.0 ENE 26 33 14 18 1009.6 1009.6 0.2
27/02:30am 27.1 27.4 22.9 78 2.9 E 26 33 14 18 1009.8 1009.8 0.2
27/02:00am 27.1 27.3 22.1 74 3.4 E 24 30 13 16 1010.1 1010.1 0.2
27/01:30am 27.5 27.6 23.3 78 2.9 E 28 33 15 18 1010.3 1010.3 0.2
27/01:00am 27.5 27.7 23.5 79 2.7 E 28 32 15 17 1010.7 1010.7 0.2
27/12:30am 27.5 27.4 22.9 76 3.1 E 28 35 15 19 1011.2 1011.2 0.2
27/12:00am 27.6 28.0 23.2 77 3.0 E 26 32 14 17 1011.5 1011.5 0.2
 
Date/Time
EST
Temp
°C
App
Temp
°C
Dew
Point
°C
Rel
Hum
%
Delta-T
°C
Wind Press
QNH
hPa
Press
MSL
hPa
Rain since
9am
mm
Dir  Spd
km/h
Gust
km/h
Spd
kts
Gust
kts
26/11:30pm 27.7 27.6 22.9 75 3.3 E 28 35 15 19 1011.6 1011.6 0.2
26/11:00pm 27.5 28.2 22.9 76 3.1 E 24 30 13 16 1011.9 1011.9 0.2
26/10:30pm 27.7 28.1 23.1 76 3.1 E 26 30 14 16 1012.1 1012.1 0.2
26/10:00pm 27.7 29.0 23.3 77 3.0 E 22 30 12 16 1012.2 1012.2 0.2
26/09:30pm 27.8 28.4 23.4 77 3.0 E 26 32 14 17 1012.1 1012.1 0.2
26/09:00pm 27.7 27.7 23.1 76 3.1 E 28 32 15 17 1012.0 1012.0 0.2
26/08:30pm 27.7 28.0 22.9 75 3.3 E 26 32 14 17 1011.7 1011.7 0.2
26/08:00pm 27.9 27.4 22.2 71 3.8 E 28 32 15 17 1011.4 1011.4 0.2
26/07:30pm 27.8 28.3 22.7 74 3.5 ENE 24 30 13 16 1011.0 1011.0 0.2
26/07:00pm 27.9 28.1 22.8 74 3.5 ENE 26 30 14 16 1010.6 1010.6 0.2
26/06:30pm 28.0 28.2 22.0 70 4.0 ENE 24 32 13 17 1010.2 1010.2 0.2
26/06:00pm 28.1 28.6 22.6 72 3.7 ENE 24 30 13 16 1010.1 1010.1 0.2
26/05:30pm 28.3 28.6 23.0 73 3.6 ENE 26 30 14 16 1010.0 1010.0 0.2
26/05:00pm 28.4 28.6 23.5 75 3.4 ENE 28 33 15 18 1009.8 1009.8 0.2
26/04:30pm 28.4 28.6 23.5 75 3.4 E 28 33 15 18 1009.6 1009.6 0.2
26/04:00pm 28.7 28.7 23.1 71 3.8 E 28 32 15 17 1009.7 1009.7 0.2
26/03:30pm 28.6 28.6 23.1 72 3.8 E 28 35 15 19 1009.8 1009.8 0.2
26/03:00pm 28.7 29.3 23.4 73 3.6 ENE 26 33 14 18 1010.1 1010.1 0.2
26/02:30pm 29.1 30.6 24.9 78 2.9 ENE 26 32 14 17 1010.3 1010.3 0.2
26/02:00pm 27.9 30.4 24.7 83 2.2 ENE 20 32 11 17 1010.5 1010.5 0.2
26/01:30pm 29.5 30.7 23.9 72 3.9 E 24 30 13 16 1010.7 1010.7 0.0
26/01:00pm 29.2 30.3 23.6 72 3.9 E 24 30 13 16 1011.1 1011.1 0.0
26/12:30pm 29.4 29.6 23.4 70 4.1 E 28 33 15 18 1011.4 1011.4 0.0
26/12:00pm 29.3 31.2 24.4 75 3.4 E 22 30 12 16 1011.6 1011.6 0.0
26/11:30am 27.5 26.2 22.4 73 3.4 ENE 33 39 18 21 1012.0 1012.0 0.0
26/11:00am 29.2 30.2 24.1 74 3.5 E 26 32 14 17 1012.2 1012.2 0.0
26/10:30am 29.0 29.5 23.9 74 3.5 E 28 32 15 17 1012.2 1012.2 0.0
26/10:00am 28.9 29.3 23.8 74 3.5 ENE 28 32 15 17 1012.2 1012.2 0.0
26/09:30am 28.3 28.7 23.7 76 3.2 E 28 32 15 17 1012.2 1012.2 0.0
26/09:00am 28.5 28.9 24.5 79 2.8 E 30 35 16 19 1012.0 1012.0 1.6
26/08:30am 28.2 28.6 23.8 77 3.0 ENE 28 32 15 17 1011.8 1011.8 1.6
26/08:00am 28.2 28.1 23.6 76 3.2 E 30 33 16 18 1011.6 1011.6 1.6
26/07:30am 27.9 28.0 23.9 79 2.8 E 30 35 16 19 1011.4 1011.4 1.6
26/07:00am 27.9 28.9 24.1 80 2.6 E 26 32 14 17 1011.2 1011.2 1.6
26/06:30am 27.8 28.3 24.0 80 2.6 E 28 33 15 18 1010.6 1010.6 1.6
26/06:00am 27.5 28.8 24.1 82 2.4 E 24 30 13 16 1010.5 1010.5 1.6
26/05:30am 27.3 27.7 23.7 81 2.5 ENE 28 33 15 18 1010.2 1010.2 1.6
26/05:00am 27.3 29.2 24.4 84 2.0 NE 22 28 12 15 1010.0 1010.0 1.6
26/04:30am 27.6 28.7 23.6 79 2.7 E 24 30 13 16 1010.0 1010.0 1.6
26/04:00am 27.5 28.2 23.7 80 2.6 E 26 30 14 16 1009.8 1009.8 1.6
26/03:30am 27.7 28.4 23.7 79 2.7 ENE 26 30 14 16 1009.7 1009.7 1.6
26/03:00am 27.7 29.2 23.7 79 2.8 ENE 22 30 12 16 1009.6 1009.6 1.6
26/02:30am 27.8 29.0 23.8 79 2.8 E 24 30 13 16 1009.8 1009.8 1.6
26/02:00am 27.7 28.8 23.7 79 2.8 ENE 24 30 13 16 1010.0 1010.0 1.6
26/01:30am 27.7 28.3 23.5 78 2.9 ENE 26 32 14 17 1010.2 1010.2 1.6
26/01:00am 27.7 28.6 23.3 77 3.0 ENE 24 30 13 16 1010.6 1010.6 1.6
26/12:30am 27.7 28.8 23.7 79 2.7 ENE 24 30 13 16 1010.9 1010.9 1.6
26/12:00am 27.9 29.0 23.7 78 2.9 ENE 24 30 13 16 1011.2 1011.2 1.6
 
Date/Time
EST
Temp
°C
App
Temp
°C
Dew
Point
°C
Rel
Hum
%
Delta-T
°C
Wind Press
QNH
hPa
Press
MSL
hPa
Rain since
9am
mm
Dir  Spd
km/h
Gust
km/h
Spd
kts
Gust
kts
25/11:30pm 28.1 29.4 24.7 82 2.4 ENE 26 32 14 17 1011.5 1011.5 1.6

Other formats

Comma delimited format used in spreadsheet applications
http://www.bom.gov.au/fwo/IDQ60801/IDQ60801.94373.axf

JavaScript Object Notation format (JSON) in row-major order
http://www.bom.gov.au/fwo/IDQ60801/IDQ60801.94373.json

Data quality

Most of these data are generated automatically and are frequently updated. Quality checks on data are not normally performed. It is possible for incorrect values to appear. Refer to information at About Latest Weather Observations and please check the disclaimer before using these data.